CheckWX is a tool to help pilots better visualize weather data.  It is not intended as a substitute for an official pre-flight weather briefing.

06:17:48 UTC

EGLC TAF
London City Airport
London, United Kingdom
TAF EGLC 020208Z 0203/0212 02007KT CAVOK

Jun-2@
03:00 UTC

Jun-2 @ 03:00 UTC

Jun-2@
12:00 UTC

Jun-2 @ 12:00 UTC

TAF EGLC 020208Z 0203/0212 02007KT CAVOK
Wind
  • 020° at 7 KTS
Conditions
No significant weather
Cloud Levels
  • No significant clouds